sensor_id;sensor_type;location;lat;lon;timestamp;temperature;humidity
2945;DHT22;1482;51.398;7.128;2022-12-24T00:00:12;11.00;99.90
2945;DHT22;1482;51.398;7.128;2022-12-24T00:02:37;11.10;99.90
2945;DHT22;1482;51.398;7.128;2022-12-24T00:05:04;11.10;99.90
2945;DHT22;1482;51.398;7.128;2022-12-24T00:07:29;11.10;99.90
2945;DHT22;1482;51.398;7.128;2022-12-24T00:09:55;11.00;99.90
2945;DHT22;1482;51.398;7.128;2022-12-24T00:12:21;10.90;99.90
2945;DHT22;1482;51.398;7.128;2022-12-24T00:14:46;10.90;99.90
2945;DHT22;1482;51.398;7.128;2022-12-24T00:17:12;10.90;99.90
2945;DHT22;1482;51.398;7.128;2022-12-24T00:19:37;11.00;99.90
2945;DHT22;1482;51.398;7.128;2022-12-24T00:22:03;11.00;99.90
2945;DHT22;1482;51.398;7.128;2022-12-24T00:24:28;11.00;99.90
2945;DHT22;1482;51.398;7.128;2022-12-24T00:26:54;11.00;99.90
2945;DHT22;1482;51.398;7.128;2022-12-24T00:29:19;11.00;99.90
2945;DHT22;1482;51.398;7.128;2022-12-24T00:31:45;11.00;1.00
2945;DHT22;1482;51.398;7.128;2022-12-24T00:34:11;11.00;1.00
2945;DHT22;1482;51.398;7.128;2022-12-24T00:36:36;11.00;1.00
2945;DHT22;1482;51.398;7.128;2022-12-24T00:39:02;11.00;1.00
2945;DHT22;1482;51.398;7.128;2022-12-24T00:41:28;11.00;1.00
2945;DHT22;1482;51.398;7.128;2022-12-24T00:44:02;11.00;1.00
2945;DHT22;1482;51.398;7.128;2022-12-24T00:46:30;11.00;1.00
2945;DHT22;1482;51.398;7.128;2022-12-24T00:48:56;11.00;1.00
2945;DHT22;1482;51.398;7.128;2022-12-24T00:51:23;11.00;1.00
2945;DHT22;1482;51.398;7.128;2022-12-24T00:53:49;11.00;1.00
2945;DHT22;1482;51.398;7.128;2022-12-24T00:56:15;10.90;1.00
2945;DHT22;1482;51.398;7.128;2022-12-24T00:58:41;10.90;1.00
2945;DHT22;1482;51.398;7.128;2022-12-24T01:01:06;10.90;1.00
2945;DHT22;1482;51.398;7.128;2022-12-24T01:03:32;10.80;99.90
2945;DHT22;1482;51.398;7.128;2022-12-24T01:06:08;10.80;1.00
2945;DHT22;1482;51.398;7.128;2022-12-24T01:08:34;10.80;1.00
2945;DHT22;1482;51.398;7.128;2022-12-24T01:11:01;10.80;1.00
2945;DHT22;1482;51.398;7.128;2022-12-24T01:13:26;10.80;1.00
2945;DHT22;1482;51.398;7.128;2022-12-24T01:15:52;10.80;1.00
2945;DHT22;1482;51.398;7.128;2022-12-24T01:18:18;10.80;1.00
2945;DHT22;1482;51.398;7.128;2022-12-24T01:20:43;10.80;1.00
2945;DHT22;1482;51.398;7.128;2022-12-24T01:23:09;10.70;1.00
2945;DHT22;1482;51.398;7.128;2022-12-24T01:25:37;10.70;1.00
2945;DHT22;1482;51.398;7.128;2022-12-24T01:28:03;10.70;1.00
2945;DHT22;1482;51.398;7.128;2022-12-24T01:30:29;10.60;1.00
2945;DHT22;1482;51.398;7.128;2022-12-24T01:32:54;10.60;1.00
2945;DHT22;1482;51.398;7.128;2022-12-24T01:35:20;10.60;1.00
2945;DHT22;1482;51.398;7.128;2022-12-24T01:37:45;10.50;1.00
2945;DHT22;1482;51.398;7.128;2022-12-24T01:40:14;10.70;1.00
2945;DHT22;1482;51.398;7.128;2022-12-24T01:42:59;10.50;1.00
2945;DHT22;1482;51.398;7.128;2022-12-24T01:45:59;10.50;1.00
2945;DHT22;1482;51.398;7.128;2022-12-24T01:48:54;10.60;1.00
2945;DHT22;1482;51.398;7.128;2022-12-24T01:51:31;10.60;1.00
2945;DHT22;1482;51.398;7.128;2022-12-24T01:54:05;10.60;1.00
2945;DHT22;1482;51.398;7.128;2022-12-24T01:56:32;10.50;1.00
2945;DHT22;1482;51.398;7.128;2022-12-24T01:59:07;10.50;1.00
2945;DHT22;1482;51.398;7.128;2022-12-24T02:01:34;10.40;1.00
2945;DHT22;1482;51.398;7.128;2022-12-24T02:04:06;10.40;1.00
2945;DHT22;1482;51.398;7.128;2022-12-24T02:06:33;10.30;1.00
2945;DHT22;1482;51.398;7.128;2022-12-24T02:08:58;10.30;1.00
2945;DHT22;1482;51.398;7.128;2022-12-24T02:11:24;10.40;33.10
2945;DHT22;1482;51.398;7.128;2022-12-24T02:13:54;10.40;94.20
2945;DHT22;1482;51.398;7.128;2022-12-24T02:19:10;10.30;99.90
2945;DHT22;1482;51.398;7.128;2022-12-24T02:22:13;10.30;99.90
2945;DHT22;1482;51.398;7.128;2022-12-24T02:25:06;10.30;99.90
2945;DHT22;1482;51.398;7.128;2022-12-24T02:27:44;10.20;99.90
2945;DHT22;1482;51.398;7.128;2022-12-24T02:37:53;10.10;1.00
2945;DHT22;1482;51.398;7.128;2022-12-24T02:40:37;10.20;99.90
2945;DHT22;1482;51.398;7.128;2022-12-24T02:43:09;10.20;99.90
2945;DHT22;1482;51.398;7.128;2022-12-24T02:45:37;10.30;99.90
2945;DHT22;1482;51.398;7.128;2022-12-24T02:48:04;10.30;99.90
2945;DHT22;1482;51.398;7.128;2022-12-24T02:50:31;10.30;99.90
2945;DHT22;1482;51.398;7.128;2022-12-24T02:52:56;10.40;99.90
2945;DHT22;1482;51.398;7.128;2022-12-24T03:01:16;10.40;99.90
2945;DHT22;1482;51.398;7.128;2022-12-24T03:04:10;10.40;99.90
2945;DHT22;1482;51.398;7.128;2022-12-24T03:06:51;10.40;99.90
2945;DHT22;1482;51.398;7.128;2022-12-24T03:09:26;10.50;99.90
2945;DHT22;1482;51.398;7.128;2022-12-24T03:12:07;10.50;99.90
2945;DHT22;1482;51.398;7.128;2022-12-24T03:14:36;10.40;99.90
2945;DHT22;1482;51.398;7.128;2022-12-24T03:17:03;10.40;99.90
2945;DHT22;1482;51.398;7.128;2022-12-24T03:19:30;10.40;99.90
2945;DHT22;1482;51.398;7.128;2022-12-24T03:21:57;10.40;99.90
2945;DHT22;1482;51.398;7.128;2022-12-24T03:24:23;10.40;99.90
2945;DHT22;1482;51.398;7.128;2022-12-24T03:26:49;10.30;99.90
2945;DHT22;1482;51.398;7.128;2022-12-24T03:29:16;10.30;99.90
2945;DHT22;1482;51.398;7.128;2022-12-24T03:31:43;10.30;99.90
2945;DHT22;1482;51.398;7.128;2022-12-24T03:34:10;10.30;99.90
2945;DHT22;1482;51.398;7.128;2022-12-24T03:36:36;10.30;99.90
2945;DHT22;1482;51.398;7.128;2022-12-24T03:39:03;10.30;99.90
2945;DHT22;1482;51.398;7.128;2022-12-24T03:41:28;10.30;99.90
2945;DHT22;1482;51.398;7.128;2022-12-24T03:43:54;10.30;99.90
2945;DHT22;1482;51.398;7.128;2022-12-24T03:46:19;10.40;99.90
2945;DHT22;1482;51.398;7.128;2022-12-24T03:48:45;10.40;99.90
2945;DHT22;1482;51.398;7.128;2022-12-24T03:51:17;10.30;99.90
2945;DHT22;1482;51.398;7.128;2022-12-24T03:53:43;10.30;99.90
2945;DHT22;1482;51.398;7.128;2022-12-24T03:56:08;10.20;99.90
2945;DHT22;1482;51.398;7.128;2022-12-24T03:58:34;10.20;1.00
2945;DHT22;1482;51.398;7.128;2022-12-24T04:00:59;10.30;1.00
2945;DHT22;1482;51.398;7.128;2022-12-24T04:03:25;10.30;1.00
2945;DHT22;1482;51.398;7.128;2022-12-24T04:06:05;10.30;1.00
2945;DHT22;1482;51.398;7.128;2022-12-24T04:08:31;10.30;59.60
2945;DHT22;1482;51.398;7.128;2022-12-24T04:10:57;10.40;99.90
2945;DHT22;1482;51.398;7.128;2022-12-24T04:13:23;10.40;99.90
2945;DHT22;1482;51.398;7.128;2022-12-24T04:16:03;10.40;99.90
2945;DHT22;1482;51.398;7.128;2022-12-24T04:18:29;10.40;99.90
2945;DHT22;1482;51.398;7.128;2022-12-24T04:20:55;10.40;99.90
2945;DHT22;1482;51.398;7.128;2022-12-24T04:23:21;10.40;99.90
2945;DHT22;1482;51.398;7.128;2022-12-24T04:25:47;10.30;99.90
2945;DHT22;1482;51.398;7.128;2022-12-24T04:28:13;10.40;99.90
2945;DHT22;1482;51.398;7.128;2022-12-24T04:30:40;10.30;99.90
2945;DHT22;1482;51.398;7.128;2022-12-24T04:33:06;10.40;99.90
2945;DHT22;1482;51.398;7.128;2022-12-24T04:35:32;10.30;99.90
2945;DHT22;1482;51.398;7.128;2022-12-24T04:37:57;10.30;99.90
2945;DHT22;1482;51.398;7.128;2022-12-24T04:40:24;10.30;1.00
2945;DHT22;1482;51.398;7.128;2022-12-24T04:42:49;10.40;1.00
2945;DHT22;1482;51.398;7.128;2022-12-24T04:45:16;10.40;1.00
2945;DHT22;1482;51.398;7.128;2022-12-24T04:47:41;10.40;1.00
2945;DHT22;1482;51.398;7.128;2022-12-24T04:50:08;10.40;99.90
2945;DHT22;1482;51.398;7.128;2022-12-24T04:52:33;10.40;99.90
2945;DHT22;1482;51.398;7.128;2022-12-24T04:54:59;10.50;99.90
2945;DHT22;1482;51.398;7.128;2022-12-24T04:57:24;10.50;99.90
2945;DHT22;1482;51.398;7.128;2022-12-24T04:59:50;10.50;99.90
2945;DHT22;1482;51.398;7.128;2022-12-24T05:02:16;10.50;99.90
2945;DHT22;1482;51.398;7.128;2022-12-24T05:04:41;10.60;99.90
2945;DHT22;1482;51.398;7.128;2022-12-24T05:07:07;10.60;99.90
2945;DHT22;1482;51.398;7.128;2022-12-24T05:09:32;10.60;21.50
2945;DHT22;1482;51.398;7.128;2022-12-24T05:11:58;10.60;39.40
2945;DHT22;1482;51.398;7.128;2022-12-24T05:14:23;10.50;1.00
2945;DHT22;1482;51.398;7.128;2022-12-24T05:16:49;10.50;99.90
2945;DHT22;1482;51.398;7.128;2022-12-24T05:19:15;10.50;99.90
2945;DHT22;1482;51.398;7.128;2022-12-24T05:21:40;10.60;99.90
2945;DHT22;1482;51.398;7.128;2022-12-24T05:24:06;10.60;99.90
2945;DHT22;1482;51.398;7.128;2022-12-24T05:26:53;10.60;99.90
2945;DHT22;1482;51.398;7.128;2022-12-24T05:29:19;10.60;99.90
2945;DHT22;1482;51.398;7.128;2022-12-24T05:31:44;10.60;99.90
2945;DHT22;1482;51.398;7.128;2022-12-24T05:34:11;10.60;99.90
2945;DHT22;1482;51.398;7.128;2022-12-24T05:36:38;10.60;99.90
2945;DHT22;1482;51.398;7.128;2022-12-24T05:39:04;10.60;99.90
2945;DHT22;1482;51.398;7.128;2022-12-24T05:41:30;10.60;99.90
2945;DHT22;1482;51.398;7.128;2022-12-24T05:43:56;10.60;99.90
2945;DHT22;1482;51.398;7.128;2022-12-24T05:46:22;10.60;99.90
2945;DHT22;1482;51.398;7.128;2022-12-24T05:48:48;10.60;99.90
2945;DHT22;1482;51.398;7.128;2022-12-24T05:51:15;10.50;1.00
2945;DHT22;1482;51.398;7.128;2022-12-24T05:53:44;10.60;99.90
2945;DHT22;1482;51.398;7.128;2022-12-24T05:56:12;10.60;1.00
2945;DHT22;1482;51.398;7.128;2022-12-24T05:58:38;10.60;99.90
2945;DHT22;1482;51.398;7.128;2022-12-24T06:01:05;10.60;99.90
2945;DHT22;1482;51.398;7.128;2022-12-24T06:03:31;10.50;99.90
2945;DHT22;1482;51.398;7.128;2022-12-24T06:06:05;10.50;99.90
2945;DHT22;1482;51.398;7.128;2022-12-24T06:08:31;10.50;99.90
2945;DHT22;1482;51.398;7.128;2022-12-24T06:11:03;10.50;99.90
2945;DHT22;1482;51.398;7.128;2022-12-24T06:13:30;10.50;99.90
2945;DHT22;1482;51.398;7.128;2022-12-24T06:15:57;10.50;99.90
2945;DHT22;1482;51.398;7.128;2022-12-24T06:18:22;10.50;99.90
2945;DHT22;1482;51.398;7.128;2022-12-24T06:20:52;10.50;99.90
2945;DHT22;1482;51.398;7.128;2022-12-24T06:23:18;10.50;1.00
2945;DHT22;1482;51.398;7.128;2022-12-24T06:25:45;10.50;1.00
2945;DHT22;1482;51.398;7.128;2022-12-24T06:28:10;10.40;1.00
2945;DHT22;1482;51.398;7.128;2022-12-24T06:30:36;10.50;1.00
2945;DHT22;1482;51.398;7.128;2022-12-24T06:33:02;10.50;1.00
2945;DHT22;1482;51.398;7.128;2022-12-24T06:35:27;10.50;1.00
2945;DHT22;1482;51.398;7.128;2022-12-24T06:37:55;10.50;99.90
2945;DHT22;1482;51.398;7.128;2022-12-24T06:40:20;10.50;99.90
2945;DHT22;1482;51.398;7.128;2022-12-24T06:42:46;10.50;99.90
2945;DHT22;1482;51.398;7.128;2022-12-24T06:45:11;10.50;99.90
2945;DHT22;1482;51.398;7.128;2022-12-24T06:47:37;10.50;99.90
2945;DHT22;1482;51.398;7.128;2022-12-24T06:50:02;10.50;99.90
2945;DHT22;1482;51.398;7.128;2022-12-24T06:52:28;10.50;99.90
2945;DHT22;1482;51.398;7.128;2022-12-24T06:54:54;10.50;99.90
2945;DHT22;1482;51.398;7.128;2022-12-24T06:57:19;10.40;99.90
2945;DHT22;1482;51.398;7.128;2022-12-24T06:59:45;10.50;99.90
2945;DHT22;1482;51.398;7.128;2022-12-24T07:02:10;10.50;99.90
2945;DHT22;1482;51.398;7.128;2022-12-24T07:04:36;10.40;99.90
2945;DHT22;1482;51.398;7.128;2022-12-24T07:07:01;10.40;99.90
2945;DHT22;1482;51.398;7.128;2022-12-24T07:09:27;10.40;99.90
2945;DHT22;1482;51.398;7.128;2022-12-24T07:11:52;10.40;99.90
2945;DHT22;1482;51.398;7.128;2022-12-24T07:14:18;10.30;99.90
2945;DHT22;1482;51.398;7.128;2022-12-24T07:16:43;10.30;1.00
2945;DHT22;1482;51.398;7.128;2022-12-24T07:19:09;10.60;1.00
2945;DHT22;1482;51.398;7.128;2022-12-24T07:21:34;10.90;99.90
2945;DHT22;1482;51.398;7.128;2022-12-24T07:25:32;11.10;99.90
2945;DHT22;1482;51.398;7.128;2022-12-24T07:27:58;11.40;1.00
2945;DHT22;1482;51.398;7.128;2022-12-24T07:30:23;11.30;1.00
2945;DHT22;1482;51.398;7.128;2022-12-24T07:32:50;11.20;1.00
2945;DHT22;1482;51.398;7.128;2022-12-24T07:35:15;11.20;1.00
2945;DHT22;1482;51.398;7.128;2022-12-24T07:37:41;11.10;1.00
2945;DHT22;1482;51.398;7.128;2022-12-24T07:40:07;11.00;1.00
2945;DHT22;1482;51.398;7.128;2022-12-24T07:42:34;10.90;1.00
2945;DHT22;1482;51.398;7.128;2022-12-24T07:44:59;10.90;22.80
2945;DHT22;1482;51.398;7.128;2022-12-24T07:47:25;10.80;48.90
2945;DHT22;1482;51.398;7.128;2022-12-24T07:49:50;10.80;70.00
2945;DHT22;1482;51.398;7.128;2022-12-24T07:52:16;10.80;53.80
2945;DHT22;1482;51.398;7.128;2022-12-24T07:54:41;10.90;99.90
2945;DHT22;1482;51.398;7.128;2022-12-24T07:57:07;10.80;36.50
2945;DHT22;1482;51.398;7.128;2022-12-24T07:59:32;10.70;99.90
2945;DHT22;1482;51.398;7.128;2022-12-24T08:01:58;10.80;99.90
2945;DHT22;1482;51.398;7.128;2022-12-24T08:04:23;10.80;99.90
2945;DHT22;1482;51.398;7.128;2022-12-24T08:06:49;10.90;85.20
2945;DHT22;1482;51.398;7.128;2022-12-24T08:09:15;10.90;37.90
2945;DHT22;1482;51.398;7.128;2022-12-24T08:11:40;10.90;1.00
2945;DHT22;1482;51.398;7.128;2022-12-24T08:14:06;10.80;1.00
2945;DHT22;1482;51.398;7.128;2022-12-24T08:16:31;10.80;96.30
2945;DHT22;1482;51.398;7.128;2022-12-24T08:18:57;10.80;99.90
2945;DHT22;1482;51.398;7.128;2022-12-24T08:21:22;11.00;94.30
2945;DHT22;1482;51.398;7.128;2022-12-24T08:23:48;11.00;12.80
2945;DHT22;1482;51.398;7.128;2022-12-24T08:26:13;11.00;1.00
2945;DHT22;1482;51.398;7.128;2022-12-24T08:28:39;10.90;1.00
2945;DHT22;1482;51.398;7.128;2022-12-24T08:31:05;10.90;1.00
2945;DHT22;1482;51.398;7.128;2022-12-24T08:33:31;10.80;53.70
2945;DHT22;1482;51.398;7.128;2022-12-24T08:35:56;10.70;99.90
2945;DHT22;1482;51.398;7.128;2022-12-24T08:38:22;10.70;99.90
2945;DHT22;1482;51.398;7.128;2022-12-24T08:40:48;10.70;99.90
2945;DHT22;1482;51.398;7.128;2022-12-24T08:43:18;10.70;99.90
2945;DHT22;1482;51.398;7.128;2022-12-24T08:45:45;10.80;99.90
2945;DHT22;1482;51.398;7.128;2022-12-24T08:48:11;11.00;99.90
2945;DHT22;1482;51.398;7.128;2022-12-24T08:50:40;11.30;99.90
2945;DHT22;1482;51.398;7.128;2022-12-24T08:53:07;11.30;1.00
2945;DHT22;1482;51.398;7.128;2022-12-24T08:55:33;11.20;1.00
2945;DHT22;1482;51.398;7.128;2022-12-24T08:57:59;11.20;1.00
2945;DHT22;1482;51.398;7.128;2022-12-24T09:00:25;11.20;1.00
2945;DHT22;1482;51.398;7.128;2022-12-24T09:02:51;11.20;1.00
2945;DHT22;1482;51.398;7.128;2022-12-24T09:05:17;11.10;1.00
2945;DHT22;1482;51.398;7.128;2022-12-24T09:07:42;11.10;1.00
2945;DHT22;1482;51.398;7.128;2022-12-24T09:10:09;11.10;1.00
2945;DHT22;1482;51.398;7.128;2022-12-24T09:12:35;10.90;1.00
2945;DHT22;1482;51.398;7.128;2022-12-24T09:15:01;10.90;1.00
2945;DHT22;1482;51.398;7.128;2022-12-24T09:17:26;11.00;1.00
2945;DHT22;1482;51.398;7.128;2022-12-24T09:19:52;11.10;1.00
2945;DHT22;1482;51.398;7.128;2022-12-24T09:22:17;11.10;1.00
2945;DHT22;1482;51.398;7.128;2022-12-24T09:24:43;11.10;1.00
2945;DHT22;1482;51.398;7.128;2022-12-24T09:27:08;11.10;1.00
2945;DHT22;1482;51.398;7.128;2022-12-24T09:29:34;11.30;1.00
2945;DHT22;1482;51.398;7.128;2022-12-24T09:32:00;11.50;1.00
2945;DHT22;1482;51.398;7.128;2022-12-24T09:34:26;11.60;1.00
2945;DHT22;1482;51.398;7.128;2022-12-24T09:36:52;11.60;99.90
2945;DHT22;1482;51.398;7.128;2022-12-24T09:39:19;11.80;99.90
2945;DHT22;1482;51.398;7.128;2022-12-24T09:44:49;11.90;99.90
2945;DHT22;1482;51.398;7.128;2022-12-24T09:47:21;12.20;99.90
2945;DHT22;1482;51.398;7.128;2022-12-24T09:49:52;12.20;99.90
2945;DHT22;1482;51.398;7.128;2022-12-24T09:52:39;12.30;99.90
2945;DHT22;1482;51.398;7.128;2022-12-24T09:57:53;12.50;99.90
2945;DHT22;1482;51.398;7.128;2022-12-24T10:00:42;12.40;99.90
2945;DHT22;1482;51.398;7.128;2022-12-24T10:03:15;12.30;99.90
2945;DHT22;1482;51.398;7.128;2022-12-24T10:05:51;12.20;99.90
2945;DHT22;1482;51.398;7.128;2022-12-24T10:08:45;12.00;99.90
2945;DHT22;1482;51.398;7.128;2022-12-24T10:11:44;12.00;99.90
2945;DHT22;1482;51.398;7.128;2022-12-24T10:14:46;12.00;99.90
2945;DHT22;1482;51.398;7.128;2022-12-24T10:17:33;12.00;99.90
2945;DHT22;1482;51.398;7.128;2022-12-24T10:25:36;11.80;99.90
2945;DHT22;1482;51.398;7.128;2022-12-24T10:28:12;11.80;99.90
2945;DHT22;1482;51.398;7.128;2022-12-24T10:30:39;11.60;99.90
2945;DHT22;1482;51.398;7.128;2022-12-24T10:33:18;11.70;99.90
2945;DHT22;1482;51.398;7.128;2022-12-24T10:35:51;11.70;99.90
2945;DHT22;1482;51.398;7.128;2022-12-24T10:38:18;11.80;99.90
2945;DHT22;1482;51.398;7.128;2022-12-24T10:40:46;11.80;99.90
2945;DHT22;1482;51.398;7.128;2022-12-24T10:43:18;12.00;99.90
2945;DHT22;1482;51.398;7.128;2022-12-24T10:45:55;12.20;99.90
2945;DHT22;1482;51.398;7.128;2022-12-24T10:48:42;12.40;99.90
2945;DHT22;1482;51.398;7.128;2022-12-24T10:54:00;12.50;99.90
2945;DHT22;1482;51.398;7.128;2022-12-24T10:56:31;12.50;99.90
2945;DHT22;1482;51.398;7.128;2022-12-24T10:58:56;12.60;99.90
2945;DHT22;1482;51.398;7.128;2022-12-24T11:01:58;12.80;99.90
2945;DHT22;1482;51.398;7.128;2022-12-24T11:04:28;12.90;99.90
2945;DHT22;1482;51.398;7.128;2022-12-24T11:07:05;13.10;99.90
2945;DHT22;1482;51.398;7.128;2022-12-24T11:09:40;13.20;99.90
2945;DHT22;1482;51.398;7.128;2022-12-24T11:12:16;13.20;99.90
2945;DHT22;1482;51.398;7.128;2022-12-24T11:14:43;13.10;99.90
2945;DHT22;1482;51.398;7.128;2022-12-24T11:17:19;13.20;99.90
2945;DHT22;1482;51.398;7.128;2022-12-24T11:19:48;13.10;99.90
2945;DHT22;1482;51.398;7.128;2022-12-24T11:22:20;13.20;99.90
2945;DHT22;1482;51.398;7.128;2022-12-24T11:27:41;13.10;99.90
2945;DHT22;1482;51.398;7.128;2022-12-24T11:32:40;13.00;99.90
2945;DHT22;1482;51.398;7.128;2022-12-24T11:35:08;12.90;99.90
2945;DHT22;1482;51.398;7.128;2022-12-24T11:37:38;12.90;99.90
2945;DHT22;1482;51.398;7.128;2022-12-24T11:40:04;12.90;99.90
2945;DHT22;1482;51.398;7.128;2022-12-24T11:42:36;12.80;99.90
2945;DHT22;1482;51.398;7.128;2022-12-24T11:45:06;12.60;99.90
2945;DHT22;1482;51.398;7.128;2022-12-24T11:47:39;12.60;99.90
2945;DHT22;1482;51.398;7.128;2022-12-24T11:50:29;12.60;99.90
2945;DHT22;1482;51.398;7.128;2022-12-24T11:55:52;12.50;99.90
2945;DHT22;1482;51.398;7.128;2022-12-24T12:01:13;12.30;99.90
2945;DHT22;1482;51.398;7.128;2022-12-24T12:04:03;12.40;99.90
2945;DHT22;1482;51.398;7.128;2022-12-24T12:06:36;12.30;99.90
2945;DHT22;1482;51.398;7.128;2022-12-24T12:09:11;12.20;99.90
2945;DHT22;1482;51.398;7.128;2022-12-24T12:11:39;12.20;99.90
2945;DHT22;1482;51.398;7.128;2022-12-24T12:14:14;12.30;99.90
2945;DHT22;1482;51.398;7.128;2022-12-24T12:19:44;12.20;99.90
2945;DHT22;1482;51.398;7.128;2022-12-24T12:24:58;12.20;99.90
2945;DHT22;1482;51.398;7.128;2022-12-24T12:27:32;12.10;99.90
2945;DHT22;1482;51.398;7.128;2022-12-24T12:30:04;12.30;99.90
2945;DHT22;1482;51.398;7.128;2022-12-24T12:32:55;12.40;99.90
2945;DHT22;1482;51.398;7.128;2022-12-24T12:35:39;12.70;99.90
2945;DHT22;1482;51.398;7.128;2022-12-24T12:38:12;13.10;99.90
2945;DHT22;1482;51.398;7.128;2022-12-24T12:40:49;13.50;99.90
2945;DHT22;1482;51.398;7.128;2022-12-24T12:43:26;13.60;99.90
2945;DHT22;1482;51.398;7.128;2022-12-24T12:46:08;13.60;80.20
2945;DHT22;1482;51.398;7.128;2022-12-24T12:51:14;13.30;58.20
2945;DHT22;1482;51.398;7.128;2022-12-24T12:53:52;13.10;59.00
2945;DHT22;1482;51.398;7.128;2022-12-24T12:56:32;13.10;74.00
2945;DHT22;1482;51.398;7.128;2022-12-24T12:59:03;13.00;78.50
2945;DHT22;1482;51.398;7.128;2022-12-24T13:04:31;12.80;99.50
2945;DHT22;1482;51.398;7.128;2022-12-24T13:10:35;12.70;93.00
2945;DHT22;1482;51.398;7.128;2022-12-24T13:16:01;12.70;96.20
2945;DHT22;1482;51.398;7.128;2022-12-24T13:21:20;13.00;92.80
2945;DHT22;1482;51.398;7.128;2022-12-24T13:23:47;13.00;79.00
2945;DHT22;1482;51.398;7.128;2022-12-24T13:26:14;12.90;60.60
2945;DHT22;1482;51.398;7.128;2022-12-24T13:28:41;12.90;55.20
2945;DHT22;1482;51.398;7.128;2022-12-24T13:38:52;12.30;65.90
2945;DHT22;1482;51.398;7.128;2022-12-24T13:49:35;12.00;86.30
2945;DHT22;1482;51.398;7.128;2022-12-24T13:55:04;11.90;95.20
2945;DHT22;1482;51.398;7.128;2022-12-24T13:57:55;11.90;89.50
2945;DHT22;1482;51.398;7.128;2022-12-24T14:00:24;11.90;85.00
2945;DHT22;1482;51.398;7.128;2022-12-24T14:02:59;11.70;81.00
2945;DHT22;1482;51.398;7.128;2022-12-24T14:05:34;11.60;91.40
2945;DHT22;1482;51.398;7.128;2022-12-24T14:08:10;11.60;97.90
2945;DHT22;1482;51.398;7.128;2022-12-24T14:10:39;11.60;99.90
2945;DHT22;1482;51.398;7.128;2022-12-24T14:16:21;11.70;99.90
2945;DHT22;1482;51.398;7.128;2022-12-24T14:21:21;11.50;99.90
2945;DHT22;1482;51.398;7.128;2022-12-24T14:24:18;11.70;99.90
2945;DHT22;1482;51.398;7.128;2022-12-24T14:26:55;11.70;99.90
2945;DHT22;1482;51.398;7.128;2022-12-24T14:31:56;11.50;99.90
2945;DHT22;1482;51.398;7.128;2022-12-24T14:34:22;11.50;99.90
2945;DHT22;1482;51.398;7.128;2022-12-24T14:36:49;11.50;99.90
2945;DHT22;1482;51.398;7.128;2022-12-24T14:39:33;11.40;99.90
2945;DHT22;1482;51.398;7.128;2022-12-24T14:47:28;11.30;95.60
2945;DHT22;1482;51.398;7.128;2022-12-24T14:52:47;11.10;98.70
2945;DHT22;1482;51.398;7.128;2022-12-24T15:00:48;11.00;99.90
2945;DHT22;1482;51.398;7.128;2022-12-24T15:03:16;11.00;99.90
2945;DHT22;1482;51.398;7.128;2022-12-24T15:05:42;10.90;99.90
2945;DHT22;1482;51.398;7.128;2022-12-24T15:08:16;10.80;99.90
2945;DHT22;1482;51.398;7.128;2022-12-24T15:10:44;10.90;99.90
2945;DHT22;1482;51.398;7.128;2022-12-24T15:15:46;10.80;99.90
2945;DHT22;1482;51.398;7.128;2022-12-24T15:18:15;10.80;99.90
2945;DHT22;1482;51.398;7.128;2022-12-24T15:20:46;10.60;99.90
2945;DHT22;1482;51.398;7.128;2022-12-24T15:23:19;10.50;99.90
2945;DHT22;1482;51.398;7.128;2022-12-24T15:25:45;10.50;99.90
2945;DHT22;1482;51.398;7.128;2022-12-24T15:28:21;10.30;99.90
2945;DHT22;1482;51.398;7.128;2022-12-24T15:31:04;10.30;99.90
2945;DHT22;1482;51.398;7.128;2022-12-24T15:33:35;10.40;99.90
2945;DHT22;1482;51.398;7.128;2022-12-24T15:36:02;10.30;99.90
2945;DHT22;1482;51.398;7.128;2022-12-24T15:38:36;10.30;99.90
2945;DHT22;1482;51.398;7.128;2022-12-24T15:41:26;10.30;99.90
2945;DHT22;1482;51.398;7.128;2022-12-24T15:43:53;10.30;99.90
2945;DHT22;1482;51.398;7.128;2022-12-24T15:46:21;10.30;99.90
2945;DHT22;1482;51.398;7.128;2022-12-24T15:48:48;10.20;99.90
2945;DHT22;1482;51.398;7.128;2022-12-24T15:51:31;10.10;99.90
2945;DHT22;1482;51.398;7.128;2022-12-24T15:54:03;10.20;99.90
2945;DHT22;1482;51.398;7.128;2022-12-24T15:56:37;10.20;99.90
2945;DHT22;1482;51.398;7.128;2022-12-24T16:01:50;10.10;99.90
2945;DHT22;1482;51.398;7.128;2022-12-24T16:04:22;10.10;99.90
2945;DHT22;1482;51.398;7.128;2022-12-24T16:06:59;10.00;99.90
2945;DHT22;1482;51.398;7.128;2022-12-24T16:12:01;9.90;99.90
2945;DHT22;1482;51.398;7.128;2022-12-24T16:14:27;9.80;99.90
2945;DHT22;1482;51.398;7.128;2022-12-24T16:16:53;9.80;99.90
2945;DHT22;1482;51.398;7.128;2022-12-24T16:19:26;9.70;99.90
2945;DHT22;1482;51.398;7.128;2022-12-24T16:21:55;9.70;99.90
2945;DHT22;1482;51.398;7.128;2022-12-24T16:24:23;9.70;99.90
2945;DHT22;1482;51.398;7.128;2022-12-24T16:26:50;9.70;99.90
2945;DHT22;1482;51.398;7.128;2022-12-24T16:29:16;9.70;99.90
2945;DHT22;1482;51.398;7.128;2022-12-24T16:31:48;9.60;99.90
2945;DHT22;1482;51.398;7.128;2022-12-24T16:34:14;9.60;99.90
2945;DHT22;1482;51.398;7.128;2022-12-24T16:36:42;9.50;99.90
2945;DHT22;1482;51.398;7.128;2022-12-24T16:39:13;9.50;99.90
2945;DHT22;1482;51.398;7.128;2022-12-24T16:41:53;9.40;99.90
2945;DHT22;1482;51.398;7.128;2022-12-24T16:44:38;9.30;1.00
2945;DHT22;1482;51.398;7.128;2022-12-24T16:47:24;9.10;1.00
2945;DHT22;1482;51.398;7.128;2022-12-24T16:49:50;9.10;1.00
2945;DHT22;1482;51.398;7.128;2022-12-24T16:52:21;9.10;1.00
2945;DHT22;1482;51.398;7.128;2022-12-24T16:54:48;9.20;1.00
2945;DHT22;1482;51.398;7.128;2022-12-24T16:57:14;9.10;1.00
2945;DHT22;1482;51.398;7.128;2022-12-24T16:59:39;9.10;1.00
2945;DHT22;1482;51.398;7.128;2022-12-24T17:02:06;9.20;1.00
2945;DHT22;1482;51.398;7.128;2022-12-24T17:04:32;9.20;1.00
2945;DHT22;1482;51.398;7.128;2022-12-24T17:06:58;9.30;1.00
2945;DHT22;1482;51.398;7.128;2022-12-24T17:09:23;9.30;1.00
2945;DHT22;1482;51.398;7.128;2022-12-24T17:11:49;9.30;1.00
2945;DHT22;1482;51.398;7.128;2022-12-24T17:14:15;9.30;1.00
2945;DHT22;1482;51.398;7.128;2022-12-24T17:16:41;9.30;1.00
2945;DHT22;1482;51.398;7.128;2022-12-24T17:19:06;9.30;1.00
2945;DHT22;1482;51.398;7.128;2022-12-24T17:21:32;9.20;1.00
2945;DHT22;1482;51.398;7.128;2022-12-24T17:23:58;9.20;1.00
2945;DHT22;1482;51.398;7.128;2022-12-24T17:26:24;9.30;1.00
2945;DHT22;1482;51.398;7.128;2022-12-24T17:28:54;9.10;99.90
2945;DHT22;1482;51.398;7.128;2022-12-24T17:31:20;9.10;99.90
2945;DHT22;1482;51.398;7.128;2022-12-24T17:33:51;9.10;99.90
2945;DHT22;1482;51.398;7.128;2022-12-24T17:36:17;9.10;99.90
2945;DHT22;1482;51.398;7.128;2022-12-24T17:38:43;9.10;99.90
2945;DHT22;1482;51.398;7.128;2022-12-24T17:41:15;9.10;99.90
2945;DHT22;1482;51.398;7.128;2022-12-24T17:43:41;9.10;99.90
2945;DHT22;1482;51.398;7.128;2022-12-24T17:46:09;9.10;99.90
2945;DHT22;1482;51.398;7.128;2022-12-24T17:48:35;9.20;99.90
2945;DHT22;1482;51.398;7.128;2022-12-24T17:51:04;9.20;99.90
2945;DHT22;1482;51.398;7.128;2022-12-24T17:53:35;9.20;99.90
2945;DHT22;1482;51.398;7.128;2022-12-24T17:56:01;9.20;99.90
2945;DHT22;1482;51.398;7.128;2022-12-24T17:58:28;9.20;99.90
2945;DHT22;1482;51.398;7.128;2022-12-24T18:00:54;9.20;99.90
2945;DHT22;1482;51.398;7.128;2022-12-24T18:03:20;9.20;99.90
2945;DHT22;1482;51.398;7.128;2022-12-24T18:05:46;9.20;99.90
2945;DHT22;1482;51.398;7.128;2022-12-24T18:08:12;9.20;99.90
2945;DHT22;1482;51.398;7.128;2022-12-24T18:10:38;9.20;99.90
2945;DHT22;1482;51.398;7.128;2022-12-24T18:13:03;9.20;99.90